Time;durP1;ratioP1;P1;durP2;ratioP2;P2;SDS_P1;SDS_P2;PMS_P1;PMS_P2;Temp;Humidity;BMP_temperature;BMP_pressure;BME280_temperature;BME280_humidity;BME280_pressure;Samples;Min_cycle;Max_cycle;Signal;HPM_P1;HPM_P2
2022/11/24 00:01:09;;;;;;;9.40;2.17;;;;;14.00;99986.00;;;;5013962;28;20201;-77
2022/11/24 00:03:38;;;;;;;7.22;1.33;;;;;14.00;99992.00;;;;5013205;28;20284;-77
2022/11/24 00:06:07;;;;;;;9.95;1.73;;;;;14.00;99998.00;;;;5016883;28;20254;-76
2022/11/24 00:08:35;;;;;;;4.80;1.05;;;;;14.10;100011.00;;;;5020687;28;20275;-77
2022/11/24 00:11:05;;;;;;;9.68;1.67;;;;;14.10;100015.00;;;;5021799;28;20228;-77
2022/11/24 00:13:34;;;;;;;7.63;1.90;;;;;14.10;100017.00;;;;5010337;28;20275;-78
2022/11/24 00:16:06;;;;;;;6.75;1.40;;;;;14.10;100021.00;;;;5016602;28;20266;-78
2022/11/24 00:18:34;;;;;;;7.15;1.58;;;;;14.10;100021.00;;;;5010747;28;20276;-77
2022/11/24 00:21:03;;;;;;;7.35;1.70;;;;;14.10;100028.00;;;;5013974;28;20743;-78
2022/11/24 00:23:30;;;;;;;6.95;1.45;;;;;14.10;100023.00;;;;5017544;28;20205;-78
2022/11/24 00:26:07;;;;;;;5.97;1.70;;;;;14.00;100033.00;;;;5024001;28;20737;-77
2022/11/24 00:28:35;;;;;;;5.53;1.23;;;;;14.10;100034.00;;;;5028944;28;20283;-77
2022/11/24 00:31:04;;;;;;;5.50;1.50;;;;;14.00;100026.00;;;;5027656;28;20228;-78
2022/11/24 00:33:31;;;;;;;4.88;1.48;;;;;14.00;100027.00;;;;5009201;28;20254;-78
2022/11/24 00:36:00;;;;;;;7.15;2.20;;;;;14.00;100025.00;;;;5011632;28;20605;-77
2022/11/24 00:38:30;;;;;;;10.60;2.00;;;;;14.00;100027.00;;;;5015195;28;20292;-78
2022/11/24 00:40:58;;;;;;;4.47;1.60;;;;;14.00;100021.00;;;;5019570;28;20196;-78
2022/11/24 00:43:26;;;;;;;8.60;1.70;;;;;14.00;100023.00;;;;5024703;28;20287;-78
2022/11/24 00:45:53;;;;;;;8.38;1.58;;;;;14.00;100019.00;;;;5008691;28;20292;-77
2022/11/24 00:48:21;;;;;;;10.27;2.20;;;;;14.00;100030.00;;;;5009169;28;20280;-77
2022/11/24 00:50:56;;;;;;;7.40;1.58;;;;;13.90;100023.00;;;;5010119;28;20671;-77
2022/11/24 00:53:24;;;;;;;8.77;1.63;;;;;14.00;100034.00;;;;5010328;28;20982;-78
2022/11/24 00:55:53;;;;;;;12.80;2.38;;;;;13.90;100040.00;;;;5008446;28;20718;-78
2022/11/24 00:58:21;;;;;;;6.53;1.80;;;;;13.90;100039.00;;;;5015828;28;20255;-78
2022/11/24 01:00:49;;;;;;;7.03;1.63;;;;;13.90;100053.00;;;;5029012;28;20246;-78
2022/11/24 01:03:18;;;;;;;4.45;1.60;;;;;13.90;100050.00;;;;5017063;28;20197;-77
2022/11/24 01:05:47;;;;;;;6.95;1.73;;;;;13.90;100051.00;;;;5022723;28;20600;-77
2022/11/24 01:08:14;;;;;;;8.35;2.75;;;;;13.90;100047.00;;;;5029872;28;20283;-77
2022/11/24 01:10:41;;;;;;;7.50;2.22;;;;;13.80;100053.00;;;;5020243;28;20287;-77
2022/11/24 01:13:11;;;;;;;5.63;2.40;;;;;13.80;100047.00;;;;5019749;28;20745;-78
2022/11/24 01:15:38;;;;;;;6.85;2.22;;;;;13.80;100051.00;;;;5009763;28;20189;-77
2022/11/24 01:18:06;;;;;;;11.30;2.40;;;;;13.80;100060.00;;;;5024396;28;20318;-78
2022/11/24 01:20:33;;;;;;;5.45;1.85;;;;;13.70;100053.00;;;;5025361;28;20288;-78
2022/11/24 01:23:01;;;;;;;5.50;2.28;;;;;13.70;100057.00;;;;5016261;28;20611;-77
2022/11/24 01:25:28;;;;;;;7.45;1.88;;;;;13.70;100055.00;;;;5017049;28;20203;-78
2022/11/24 01:27:56;;;;;;;9.63;1.95;;;;;13.60;100055.00;;;;5023813;28;20283;-78
2022/11/24 01:30:24;;;;;;;18.58;2.42;;;;;13.60;100054.00;;;;5024120;28;20246;-77
2022/11/24 01:32:52;;;;;;;9.52;2.78;;;;;13.60;100050.00;;;;5008777;28;20727;-77
2022/11/24 01:35:19;;;;;;;8.60;1.67;;;;;13.60;100048.00;;;;5008010;28;20793;-78
2022/11/24 01:37:47;;;;;;;5.63;1.98;;;;;13.60;100050.00;;;;5008908;28;20781;-78
2022/11/24 01:40:14;;;;;;;6.10;1.38;;;;;13.70;100055.00;;;;5021104;28;20745;-77
2022/11/24 01:42:48;;;;;;;8.57;1.73;;;;;13.60;100063.00;;;;5016289;28;20288;-77
2022/11/24 01:45:34;;;;;;;7.30;1.38;;;;;13.50;100061.00;;;;5008820;28;20289;-77
2022/11/24 01:48:05;;;;;;;6.43;1.20;;;;;13.60;100061.00;;;;5008555;28;20201;-78
2022/11/24 01:50:33;;;;;;;6.50;1.17;;;;;13.70;100078.00;;;;5007861;28;20204;-78
2022/11/24 01:53:01;;;;;;;7.72;2.10;;;;;13.70;100076.00;;;;5008713;28;20236;-77
2022/11/24 01:55:31;;;;;;;4.78;1.40;;;;;13.70;100069.00;;;;5007971;28;20300;-78
2022/11/24 01:58:04;;;;;;;6.57;2.17;;;;;13.70;100080.00;;;;5008297;28;20232;-78
2022/11/24 02:00:35;;;;;;;5.55;1.95;;;;;13.70;100087.00;;;;5008845;28;20217;-77
2022/11/24 02:03:02;;;;;;;5.60;1.15;;;;;13.80;100082.00;;;;5009217;28;20579;-78
2022/11/24 02:05:34;;;;;;;9.13;1.80;;;;;13.80;100085.00;;;;5010160;28;20293;-78
2022/11/24 02:08:03;;;;;;;5.70;1.25;;;;;13.80;100080.00;;;;5009636;28;20279;-77
2022/11/24 02:10:30;;;;;;;6.25;1.52;;;;;13.90;100090.00;;;;5014227;28;20570;-78
2022/11/24 02:13:00;;;;;;;5.70;1.30;;;;;13.90;100089.00;;;;5013978;28;20282;-76
2022/11/24 02:15:28;;;;;;;7.50;1.30;;;;;13.90;100095.00;;;;5010133;28;20201;-77
2022/11/24 02:17:59;;;;;;;4.28;0.95;;;;;13.90;100089.00;;;;5010667;28;20315;-77
2022/11/24 02:20:27;;;;;;;5.75;1.50;;;;;13.90;100086.00;;;;5010663;28;20197;-77
2022/11/24 02:23:00;;;;;;;4.13;1.02;;;;;13.90;100093.00;;;;5009565;28;20239;-77
2022/11/24 02:25:32;;;;;;;5.93;1.50;;;;;14.00;100094.00;;;;5025690;28;20288;-77
2022/11/24 02:28:07;;;;;;;4.18;0.93;;;;;14.00;100107.00;;;;5023477;28;20279;-77
2022/11/24 02:30:34;;;;;;;6.35;1.25;;;;;14.00;100109.00;;;;5008925;28;20201;-77
2022/11/24 02:33:03;;;;;;;4.72;1.13;;;;;14.10;100098.00;;;;5016039;28;20203;-77
2022/11/24 02:35:31;;;;;;;2.10;0.80;;;;;14.10;100103.00;;;;5025263;28;20319;-77
2022/11/24 02:37:58;;;;;;;4.82;1.08;;;;;14.10;100112.00;;;;5025456;28;20307;-76
2022/11/24 02:40:29;;;;;;;4.38;1.23;;;;;14.10;100117.00;;;;5019846;28;20192;-77
2022/11/24 02:43:02;;;;;;;5.35;1.13;;;;;14.10;100114.00;;;;5022559;28;20193;-76
2022/11/24 02:45:31;;;;;;;5.70;1.10;;;;;14.10;100116.00;;;;5019095;28;20292;-77
2022/11/24 02:47:58;;;;;;;8.80;1.65;;;;;14.10;100128.00;;;;5008820;28;20663;-76
2022/11/24 02:50:26;;;;;;;4.38;0.93;;;;;14.10;100123.00;;;;5014293;28;20284;-76
2022/11/24 02:52:53;;;;;;;11.52;1.50;;;;;14.10;100122.00;;;;5013033;28;20231;-76
2022/11/24 02:55:22;;;;;;;7.35;1.10;;;;;14.20;100122.00;;;;5014242;28;20758;-77
2022/11/24 02:57:49;;;;;;;10.52;1.42;;;;;14.20;100126.00;;;;5010939;28;20228;-77
2022/11/24 03:00:19;;;;;;;5.40;1.23;;;;;14.20;100126.00;;;;5011806;28;20306;-77
2022/11/24 03:02:47;;;;;;;4.28;1.23;;;;;14.20;100121.00;;;;5008697;28;20487;-77
2022/11/24 03:05:14;;;;;;;5.57;1.27;;;;;14.20;100121.00;;;;5011069;28;20288;-77
2022/11/24 03:07:42;;;;;;;6.45;1.38;;;;;14.30;100118.00;;;;5013571;28;20232;-77
2022/11/24 03:10:09;;;;;;;6.82;1.55;;;;;14.30;100117.00;;;;5012264;28;20287;-77
2022/11/24 03:12:37;;;;;;;5.95;1.60;;;;;14.30;100115.00;;;;5019590;28;20196;-77
2022/11/24 03:15:05;;;;;;;3.28;1.40;;;;;14.30;100121.00;;;;5014611;28;20202;-76
2022/11/24 03:17:34;;;;;;;15.45;1.35;;;;;14.30;100127.00;;;;5013785;28;20217;-76
2022/11/24 03:20:02;;;;;;;5.25;1.30;;;;;14.30;100119.00;;;;5019159;28;20204;-77
2022/11/24 03:22:29;;;;;;;6.53;0.82;;;;;14.30;100127.00;;;;5017084;28;20200;-77
2022/11/24 03:24:56;;;;;;;5.07;1.23;;;;;14.30;100121.00;;;;5021870;28;20637;-77
2022/11/24 03:27:24;;;;;;;5.50;1.58;;;;;14.30;100123.00;;;;5026384;28;20196;-78
2022/11/24 03:29:51;;;;;;;8.05;1.33;;;;;14.30;100125.00;;;;5018813;28;20200;-76
2022/11/24 03:32:19;;;;;;;3.38;1.10;;;;;14.30;100125.00;;;;5018569;28;20196;-77
2022/11/24 03:34:48;;;;;;;3.55;1.42;;;;;14.30;100120.00;;;;5024173;28;20330;-77
2022/11/24 03:37:16;;;;;;;7.18;1.52;;;;;14.30;100125.00;;;;5012353;28;20231;-77
2022/11/24 03:39:43;;;;;;;5.93;1.85;;;;;14.30;100126.00;;;;5008655;28;20705;-77
2022/11/24 03:42:11;;;;;;;4.65;1.33;;;;;14.30;100128.00;;;;5020991;28;20315;-77
2022/11/24 03:44:38;;;;;;;4.97;1.75;;;;;14.40;100129.00;;;;5018444;28;20195;-77
2022/11/24 03:47:06;;;;;;;10.15;1.48;;;;;14.30;100137.00;;;;5011183;28;20288;-77
2022/11/24 03:49:33;;;;;;;5.03;1.38;;;;;14.40;100130.00;;;;5010762;28;20211;-77
2022/11/24 03:52:02;;;;;;;4.90;1.20;;;;;14.30;100134.00;;;;5015328;28;20212;-77
2022/11/24 03:54:29;;;;;;;4.60;1.20;;;;;14.40;100131.00;;;;5016590;28;20303;-77
2022/11/24 03:56:56;;;;;;;3.05;0.88;;;;;14.30;100135.00;;;;5012774;28;20341;-77
2022/11/24 03:59:24;;;;;;;8.43;1.60;;;;;14.30;100149.00;;;;5011632;28;20229;-77
2022/11/24 04:01:51;;;;;;;5.47;0.98;;;;;14.30;100144.00;;;;5021071;28;20290;-77
2022/11/24 04:04:19;;;;;;;4.55;1.45;;;;;14.30;100138.00;;;;5016599;28;20207;-77
2022/11/24 04:06:46;;;;;;;10.13;1.83;;;;;14.30;100155.00;;;;5011653;28;20196;-77
2022/11/24 04:09:15;;;;;;;7.13;1.33;;;;;14.30;100149.00;;;;5011539;28;20299;-77
2022/11/24 04:14:27;;;;;;;4.72;1.35;;;;;14.30;100156.00;;;;5012769;28;20343;-77
2022/11/24 04:16:54;;;;;;;5.18;1.20;;;;;14.30;100159.00;;;;5025329;28;20200;-77
2022/11/24 04:19:22;;;;;;;8.68;1.70;;;;;14.30;100163.00;;;;5027491;28;20197;-78
2022/11/24 04:21:49;;;;;;;5.65;1.33;;;;;14.30;100173.00;;;;5025317;28;20200;-77
2022/11/24 04:24:18;;;;;;;7.90;1.35;;;;;14.30;100173.00;;;;5020400;28;20209;-78
2022/11/24 04:26:45;;;;;;;10.52;2.20;;;;;14.30;100173.00;;;;5011254;28;20205;-77
2022/11/24 04:29:12;;;;;;;8.48;1.58;;;;;14.30;100187.00;;;;5027565;28;20208;-78
2022/11/24 04:31:40;;;;;;;6.38;1.85;;;;;14.30;100173.00;;;;5020556;28;20219;-77
2022/11/24 04:34:07;;;;;;;7.80;1.45;;;;;14.30;100191.00;;;;5010532;28;20221;-77
2022/11/24 04:36:34;;;;;;;4.43;1.42;;;;;14.30;100191.00;;;;5017835;28;20705;-78
2022/11/24 04:39:01;;;;;;;9.27;1.60;;;;;14.30;100194.00;;;;5029878;28;20313;-77
2022/11/24 04:41:30;;;;;;;4.97;1.52;;;;;14.30;100201.00;;;;5025514;28;20658;-77
2022/11/24 04:43:57;;;;;;;5.03;1.48;;;;;14.30;100208.00;;;;5015449;28;20201;-77
2022/11/24 04:46:25;;;;;;;4.43;1.73;;;;;14.30;100214.00;;;;5010774;28;20196;-77
2022/11/24 04:48:52;;;;;;;4.05;1.05;;;;;14.30;100219.00;;;;5014348;28;20199;-77
2022/11/24 04:51:19;;;;;;;9.30;1.80;;;;;14.30;100218.00;;;;5009761;28;20574;-77
2022/11/24 04:53:48;;;;;;;3.92;1.55;;;;;14.30;100222.00;;;;5010243;28;20569;-78
2022/11/24 04:56:16;;;;;;;4.90;1.45;;;;;14.30;100222.00;;;;5016741;28;20207;-77
2022/11/24 04:58:47;;;;;;;6.25;1.75;;;;;14.30;100227.00;;;;5024457;28;20321;-78
2022/11/24 05:01:15;;;;;;;8.50;1.65;;;;;14.30;100238.00;;;;5017052;28;20197;-77
2022/11/24 05:03:42;;;;;;;4.75;1.48;;;;;14.30;100240.00;;;;5021349;28;20220;-77
2022/11/24 05:06:09;;;;;;;4.32;1.48;;;;;14.30;100243.00;;;;5014684;28;20193;-77
2022/11/24 05:08:36;;;;;;;6.20;1.63;;;;;14.30;100241.00;;;;5020376;28;20197;-77
2022/11/24 05:11:04;;;;;;;4.55;1.42;;;;;14.30;100249.00;;;;5027747;28;20196;-77
2022/11/24 05:13:31;;;;;;;5.35;1.75;;;;;14.30;100259.00;;;;5019596;28;20204;-77
2022/11/24 05:16:00;;;;;;;5.28;1.25;;;;;14.30;100256.00;;;;5011787;28;20204;-77
2022/11/24 05:18:27;;;;;;;4.10;1.40;;;;;14.30;100263.00;;;;5020850;28;20224;-77
2022/11/24 05:20:55;;;;;;;5.30;1.50;;;;;14.30;100268.00;;;;5021871;28;20193;-77
2022/11/24 05:23:22;;;;;;;4.95;1.20;;;;;14.30;100274.00;;;;5016437;28;20196;-78
2022/11/24 05:25:50;;;;;;;3.38;1.27;;;;;14.30;100284.00;;;;5008706;28;20415;-78
2022/11/24 05:28:17;;;;;;;3.75;1.05;;;;;14.30;100281.00;;;;5016444;28;20575;-78
2022/11/24 05:30:45;;;;;;;5.72;1.42;;;;;14.30;100288.00;;;;5027234;28;20207;-77
2022/11/24 05:33:17;;;;;;;2.75;1.50;;;;;14.30;100288.00;;;;5010110;28;20189;-77
2022/11/24 05:35:45;;;;;;;2.38;0.73;;;;;14.30;100293.00;;;;5028037;28;20278;-78
2022/11/24 05:38:13;;;;;;;3.15;1.10;;;;;14.30;100293.00;;;;5019416;28;20224;-77
2022/11/24 05:40:40;;;;;;;2.30;0.80;;;;;14.30;100304.00;;;;5010504;28;20201;-77
2022/11/24 05:43:11;;;;;;;1.48;0.57;;;;;14.20;100312.00;;;;5009369;28;20189;-77
2022/11/24 05:45:39;;;;;;;1.60;1.05;;;;;14.30;100308.00;;;;5009658;28;20193;-77
2022/11/24 05:48:08;;;;;;;1.55;0.98;;;;;14.30;100326.00;;;;5009953;28;20283;-77
2022/11/24 05:50:36;;;;;;;2.58;0.90;;;;;14.20;100315.00;;;;5011231;28;20211;-77
2022/11/24 05:53:04;;;;;;;3.78;0.88;;;;;14.20;100322.00;;;;5009825;28;20193;-77
2022/11/24 05:55:32;;;;;;;1.42;0.57;;;;;14.20;100334.00;;;;5009020;28;21139;-78
2022/11/24 05:58:01;;;;;;;3.70;0.70;;;;;14.20;100338.00;;;;5010873;28;20703;-78
2022/11/24 06:00:29;;;;;;;1.65;0.70;;;;;14.20;100340.00;;;;5008296;28;20209;-78
2022/11/24 06:02:57;;;;;;;3.45;0.95;;;;;14.20;100348.00;;;;5014605;28;20212;-77
2022/11/24 06:05:25;;;;;;;3.78;1.10;;;;;14.20;100352.00;;;;5009664;28;20193;-78
2022/11/24 06:07:55;;;;;;;1.70;0.73;;;;;14.20;100353.00;;;;5009557;28;20205;-78
2022/11/24 06:10:23;;;;;;;2.42;0.70;;;;;14.20;100359.00;;;;5008913;28;20208;-78
2022/11/24 06:12:51;;;;;;;1.02;0.57;;;;;14.20;100360.00;;;;5009648;28;20287;-78
2022/11/24 06:15:18;;;;;;;3.42;0.65;;;;;14.20;100359.00;;;;5014423;28;20193;-78
2022/11/24 06:17:54;;;;;;;1.42;0.70;;;;;14.10;100362.00;;;;5016743;28;20200;-78
2022/11/24 06:20:22;;;;;;;3.17;0.73;;;;;14.20;100374.00;;;;5019480;28;20637;-78
2022/11/24 06:22:49;;;;;;;2.97;0.65;;;;;14.20;100373.00;;;;5012509;28;20247;-77
2022/11/24 06:25:18;;;;;;;2.40;0.82;;;;;14.20;100383.00;;;;5016719;28;20211;-77
2022/11/24 06:27:46;;;;;;;2.55;0.90;;;;;14.20;100381.00;;;;5008160;28;20196;-78
2022/11/24 06:30:14;;;;;;;3.05;0.82;;;;;14.20;100395.00;;;;5022791;28;20208;-77
2022/11/24 06:32:43;;;;;;;1.52;0.77;;;;;14.20;100399.00;;;;5015368;28;20192;-77
2022/11/24 06:35:12;;;;;;;2.25;1.13;;;;;14.20;100405.00;;;;5008168;28;20232;-76
2022/11/24 06:37:39;;;;;;;5.18;1.58;;;;;14.20;100413.00;;;;5016877;28;20193;-76
2022/11/24 06:40:08;;;;;;;4.00;1.33;;;;;14.20;100417.00;;;;5014865;28;20196;-77
2022/11/24 06:42:37;;;;;;;2.50;1.02;;;;;14.10;100420.00;;;;5009598;28;20193;-77
2022/11/24 06:45:06;;;;;;;1.92;1.17;;;;;14.20;100430.00;;;;5010042;28;21118;-77
2022/11/24 06:47:34;;;;;;;3.63;1.20;;;;;14.10;100439.00;;;;5022626;28;20205;-77
2022/11/24 06:50:01;;;;;;;2.70;1.50;;;;;14.20;100445.00;;;;5007816;28;20212;-77
2022/11/24 06:52:29;;;;;;;3.83;1.63;;;;;14.20;100447.00;;;;5012992;28;20201;-76
2022/11/24 06:54:56;;;;;;;3.28;1.50;;;;;14.20;100452.00;;;;5009449;28;20227;-76
2022/11/24 06:57:23;;;;;;;3.08;1.70;;;;;14.10;100449.00;;;;5011662;28;20191;-76
2022/11/24 06:59:52;;;;;;;4.90;2.25;;;;;14.10;100462.00;;;;5019246;28;20232;-75
2022/11/24 07:02:19;;;;;;;2.60;1.70;;;;;14.10;100462.00;;;;5010134;28;20748;-76
2022/11/24 07:04:47;;;;;;;6.07;2.28;;;;;14.10;100462.00;;;;5016056;28;20216;-76
2022/11/24 07:07:14;;;;;;;2.08;1.85;;;;;14.10;100460.00;;;;5015654;28;20284;-76
2022/11/24 07:09:41;;;;;;;3.03;2.50;;;;;14.10;100473.00;;;;5018203;28;20200;-76
2022/11/24 07:12:09;;;;;;;1.92;1.80;;;;;14.10;100484.00;;;;5016369;28;20196;-76
2022/11/24 07:14:36;;;;;;;5.85;2.78;;;;;14.10;100484.00;;;;5018477;28;20200;-75
2022/11/24 07:17:04;;;;;;;4.57;2.63;;;;;14.10;100491.00;;;;5014897;28;20204;-74
2022/11/24 07:19:32;;;;;;;4.53;2.20;;;;;14.10;100501.00;;;;5031556;28;20232;-75
2022/11/24 07:21:59;;;;;;;4.13;3.15;;;;;14.10;100491.00;;;;5019921;28;20196;-74
2022/11/24 07:24:27;;;;;;;6.80;2.30;;;;;14.10;100491.00;;;;5012913;28;20200;-74
2022/11/24 07:26:54;;;;;;;2.88;2.05;;;;;14.10;100502.00;;;;5011508;28;20201;-74
2022/11/24 07:29:21;;;;;;;2.88;2.20;;;;;14.10;100504.00;;;;5015200;28;20207;-75
2022/11/24 07:31:48;;;;;;;3.13;2.28;;;;;14.10;100516.00;;;;5018354;28;20201;-75
2022/11/24 07:34:17;;;;;;;3.40;2.67;;;;;14.10;100512.00;;;;5009031;28;20229;-75
2022/11/24 07:36:45;;;;;;;5.13;2.38;;;;;14.10;100525.00;;;;5011696;28;20200;-75
2022/11/24 07:39:13;;;;;;;5.32;2.67;;;;;14.10;100530.00;;;;5009406;28;20227;-75
2022/11/24 07:41:40;;;;;;;4.68;2.40;;;;;14.20;100534.00;;;;5008285;28;20205;-75
2022/11/24 07:44:07;;;;;;;4.57;2.58;;;;;14.20;100549.00;;;;5007707;28;20247;-76
2022/11/24 07:46:35;;;;;;;3.65;2.55;;;;;14.20;100561.00;;;;5008753;28;20193;-76
2022/11/24 07:49:02;;;;;;;3.72;2.35;;;;;14.20;100558.00;;;;5014918;28;20203;-76
2022/11/24 07:51:31;;;;;;;2.97;2.67;;;;;14.20;100565.00;;;;5020797;28;20188;-76
2022/11/24 07:53:58;;;;;;;5.72;2.88;;;;;14.20;100562.00;;;;5022403;28;20211;-76
2022/11/24 07:56:25;;;;;;;4.70;2.72;;;;;14.20;100569.00;;;;5029501;28;20193;-77
2022/11/24 07:58:53;;;;;;;4.38;2.95;;;;;14.30;100578.00;;;;5030539;28;20229;-76
2022/11/24 08:01:20;;;;;;;4.50;2.95;;;;;14.30;100579.00;;;;5020688;28;20193;-76
2022/11/24 08:03:48;;;;;;;4.10;2.13;;;;;14.30;100594.00;;;;5012066;28;20205;-76
2022/11/24 08:06:17;;;;;;;6.80;3.13;;;;;14.30;100595.00;;;;5025686;28;20203;-76
2022/11/24 08:08:46;;;;;;;4.07;2.97;;;;;14.30;100603.00;;;;5024283;28;20199;-76
2022/11/24 08:11:16;;;;;;;4.32;2.70;;;;;14.30;100603.00;;;;5023125;28;20686;-77
2022/11/24 08:13:44;;;;;;;5.97;3.00;;;;;14.40;100608.00;;;;5018198;28;20196;-77
2022/11/24 08:16:13;;;;;;;3.78;2.50;;;;;14.30;100612.00;;;;5020816;28;20215;-77
2022/11/24 08:18:41;;;;;;;6.53;2.70;;;;;14.40;100610.00;;;;5018277;28;20236;-77
2022/11/24 08:21:11;;;;;;;5.30;3.00;;;;;14.40;100611.00;;;;5009146;28;20675;-77
2022/11/24 08:23:39;;;;;;;4.72;2.60;;;;;14.40;100617.00;;;;5023286;28;20208;-77
2022/11/24 08:26:09;;;;;;;4.75;2.55;;;;;14.40;100614.00;;;;5020358;28;20212;-77
2022/11/24 08:28:37;;;;;;;4.35;2.30;;;;;14.40;100623.00;;;;5023080;28;20749;-77
2022/11/24 08:31:06;;;;;;;3.22;2.17;;;;;14.40;100624.00;;;;5030281;28;20200;-77
2022/11/24 08:33:34;;;;;;;2.97;2.22;;;;;14.50;100626.00;;;;5030153;28;20188;-77
2022/11/24 08:36:05;;;;;;;4.80;2.58;;;;;14.40;100629.00;;;;5032030;28;20646;-77
2022/11/24 08:38:32;;;;;;;3.88;1.98;;;;;14.50;100639.00;;;;5027447;28;20224;-77
2022/11/24 08:41:01;;;;;;;3.90;2.20;;;;;14.50;100641.00;;;;5030357;28;20200;-78
2022/11/24 08:43:30;;;;;;;3.92;2.88;;;;;14.60;100642.00;;;;5031490;28;20258;-77
2022/11/24 08:46:00;;;;;;;3.67;2.25;;;;;14.60;100635.00;;;;5016904;28;20204;-77
2022/11/24 08:48:27;;;;;;;4.22;1.95;;;;;14.60;100644.00;;;;5013793;28;20356;-77
2022/11/24 08:50:55;;;;;;;5.40;1.92;;;;;14.60;100646.00;;;;5015571;28;20201;-78
2022/11/24 08:53:22;;;;;;;5.30;2.00;;;;;14.70;100658.00;;;;5016848;28;20207;-77
2022/11/24 08:55:50;;;;;;;2.70;1.63;;;;;14.70;100653.00;;;;5014033;28;20299;-77
2022/11/24 08:58:17;;;;;;;3.67;1.90;;;;;14.80;100650.00;;;;5010941;28;20686;-76
2022/11/24 09:00:46;;;;;;;5.32;1.60;;;;;14.80;100657.00;;;;5010912;28;20204;-76
2022/11/24 09:03:13;;;;;;;3.78;1.50;;;;;14.80;100662.00;;;;5021841;28;20207;-77
2022/11/24 09:05:40;;;;;;;3.38;1.60;;;;;14.90;100656.00;;;;5027716;28;20429;-77
2022/11/24 09:08:08;;;;;;;3.47;1.38;;;;;14.90;100661.00;;;;5023078;28;20208;-77
2022/11/24 09:10:36;;;;;;;3.97;1.70;;;;;14.90;100663.00;;;;5011053;28;20208;-77
2022/11/24 09:13:03;;;;;;;5.18;1.60;;;;;15.00;100666.00;;;;5011444;28;20209;-77
2022/11/24 09:15:30;;;;;;;2.78;1.60;;;;;15.00;100666.00;;;;5025931;28;20204;-77
2022/11/24 09:17:59;;;;;;;3.58;1.73;;;;;15.00;100671.00;;;;5013445;28;20663;-77
2022/11/24 09:20:26;;;;;;;3.72;1.42;;;;;15.00;100676.00;;;;5012934;28;20228;-77
2022/11/24 09:22:54;;;;;;;2.72;1.40;;;;;15.00;100669.00;;;;5015008;28;20203;-77
2022/11/24 09:25:22;;;;;;;2.92;1.40;;;;;15.00;100679.00;;;;5015243;28;20197;-77
2022/11/24 09:27:50;;;;;;;5.15;1.60;;;;;15.00;100689.00;;;;5010668;28;20223;-77
2022/11/24 09:30:19;;;;;;;2.47;1.20;;;;;14.90;100686.00;;;;5011007;28;20193;-77
2022/11/24 09:32:46;;;;;;;3.65;1.48;;;;;15.00;100692.00;;;;5010453;28;20209;-77
2022/11/24 09:35:15;;;;;;;4.80;1.63;;;;;15.00;100692.00;;;;5011479;28;20220;-77
2022/11/24 09:37:44;;;;;;;3.33;1.80;;;;;15.00;100696.00;;;;5011898;28;20204;-77
2022/11/24 09:40:14;;;;;;;3.00;1.40;;;;;15.00;100693.00;;;;5016152;28;20228;-78
2022/11/24 09:42:49;;;;;;;6.47;1.40;;;;;15.00;100700.00;;;;5031353;28;20204;-78
2022/11/24 09:45:28;;;;;;;8.43;1.90;;;;;15.00;100708.00;;;;5035426;28;20226;-78
2022/11/24 09:48:01;;;;;;;2.78;1.50;;;;;15.00;100711.00;;;;5034664;28;20199;-77
2022/11/24 09:50:33;;;;;;;3.67;1.40;;;;;15.10;100722.00;;;;5035211;28;20717;-78
2022/11/24 09:53:07;;;;;;;3.83;1.27;;;;;15.10;100719.00;;;;5032693;28;20208;-78
2022/11/24 09:55:39;;;;;;;9.18;1.70;;;;;15.10;100728.00;;;;5043052;28;20243;-79
2022/11/24 09:58:18;;;;;;;3.72;1.25;;;;;15.10;100725.00;;;;5038317;28;20231;-79
2022/11/24 10:00:48;;;;;;;3.65;1.33;;;;;15.20;100725.00;;;;5043277;28;20247;-78
2022/11/24 10:03:19;;;;;;;5.95;1.40;;;;;15.20;100727.00;;;;5042049;28;20198;-79
2022/11/24 10:05:50;;;;;;;5.22;1.23;;;;;15.20;100723.00;;;;5031939;28;20201;-79
2022/11/24 10:08:27;;;;;;;3.53;1.25;;;;;15.20;100727.00;;;;5022144;28;20197;-78
2022/11/24 10:10:59;;;;;;;4.55;1.02;;;;;15.30;100741.00;;;;5034387;28;20208;-79
2022/11/24 10:13:44;;;;;;;6.90;1.45;;;;;15.30;100744.00;;;;5034417;28;20197;-79
2022/11/24 10:16:19;;;;;;;4.35;1.10;;;;;15.40;100745.00;;;;5020302;28;20204;-79
2022/11/24 10:18:58;;;;;;;5.57;1.50;;;;;15.40;100754.00;;;;5015616;28;20200;-78
2022/11/24 10:21:43;;;;;;;8.05;1.70;;;;;15.50;100755.00;;;;5013965;28;20202;-78
2022/11/24 10:24:31;;;;;;;4.65;1.20;;;;;15.50;100762.00;;;;5028153;28;20211;-78
2022/11/24 10:27:03;;;;;;;5.95;1.08;;;;;15.60;100762.00;;;;5033026;28;20299;-78
2022/11/24 10:29:34;;;;;;;2.97;1.40;;;;;15.60;100766.00;;;;5018330;28;20230;-78
2022/11/24 10:32:05;;;;;;;7.07;1.42;;;;;15.70;100771.00;;;;5016713;28;20204;-77
2022/11/24 10:34:35;;;;;;;4.82;1.20;;;;;15.70;100774.00;;;;5028037;28;20228;-78
2022/11/24 10:37:13;;;;;;;5.63;1.50;;;;;15.70;100784.00;;;;5018969;28;20200;-78
2022/11/24 10:39:49;;;;;;;9.13;2.53;;;;;15.80;100777.00;;;;5007893;28;20228;-76
2022/11/24 10:42:21;;;;;;;8.90;1.25;;;;;15.80;100779.00;;;;5008295;28;20208;-76
2022/11/24 10:44:59;;;;;;;9.77;2.10;;;;;15.80;100786.00;;;;5010080;28;20300;-78
2022/11/24 10:47:27;;;;;;;7.80;1.95;;;;;15.90;100788.00;;;;5007795;28;20193;-78
2022/11/24 10:49:59;;;;;;;7.30;1.55;;;;;16.00;100794.00;;;;5008566;28;20193;-77
2022/11/24 10:52:31;;;;;;;6.60;1.80;;;;;16.00;100792.00;;;;5019598;28;20204;-77
2022/11/24 10:54:59;;;;;;;5.85;1.83;;;;;16.00;100796.00;;;;5022948;28;20220;-78
2022/11/24 10:57:33;;;;;;;4.63;1.50;;;;;16.10;100802.00;;;;5027721;28;20207;-78
2022/11/24 11:00:02;;;;;;;3.58;1.58;;;;;16.20;100805.00;;;;5026915;28;20231;-78
2022/11/24 11:02:36;;;;;;;3.50;1.30;;;;;16.20;100799.00;;;;5026336;28;20568;-77
2022/11/24 11:05:40;;;;;;;7.00;1.75;;;;;16.20;100802.00;;;;5023828;28;20207;-77
2022/11/24 11:08:19;;;;;;;4.80;1.65;;;;;16.40;100802.00;;;;4997245;28;20228;-75
2022/11/24 11:10:48;;;;;;;7.70;2.00;;;;;16.50;100803.00;;;;5011839;28;20610;-75
2022/11/24 11:13:27;;;;;;;8.13;1.75;;;;;16.50;100801.00;;;;5026423;28;20196;-75
2022/11/24 11:15:55;;;;;;;7.55;1.85;;;;;16.60;100804.00;;;;5027496;28;20216;-76
2022/11/24 11:18:27;;;;;;;6.45;1.30;;;;;16.70;100803.00;;;;5026871;28;20211;-76
2022/11/24 11:20:56;;;;;;;4.57;1.75;;;;;16.70;100799.00;;;;5019986;28;20682;-76
2022/11/24 11:23:28;;;;;;;8.15;1.70;;;;;16.70;100807.00;;;;5021506;28;20219;-77
2022/11/24 11:26:19;;;;;;;7.97;1.80;;;;;16.60;100804.00;;;;5012842;28;20208;-76
2022/11/24 11:28:59;;;;;;;10.07;1.73;;;;;16.70;100800.00;;;;5012128;28;20189;-76
2022/11/24 11:31:28;;;;;;;8.88;3.03;;;;;16.80;100806.00;;;;5019916;28;20193;-77
2022/11/24 11:33:58;;;;;;;9.23;1.75;;;;;16.80;100796.00;;;;5029830;28;20291;-77
2022/11/24 11:36:25;;;;;;;9.05;2.20;;;;;16.80;100800.00;;;;5012861;28;20208;-77
2022/11/24 11:38:54;;;;;;;4.60;1.45;;;;;16.80;100796.00;;;;5011904;28;20201;-76
2022/11/24 11:41:28;;;;;;;5.68;1.63;;;;;16.70;100795.00;;;;5011367;28;20228;-76
2022/11/24 11:44:04;;;;;;;6.57;1.75;;;;;16.70;100787.00;;;;5011513;28;20236;-76
2022/11/24 11:46:33;;;;;;;4.97;1.58;;;;;16.80;100798.00;;;;5011973;28;20197;-76
2022/11/24 11:49:01;;;;;;;8.20;1.80;;;;;16.80;100799.00;;;;5011478;28;20197;-76
2022/11/24 11:51:41;;;;;;;9.15;2.22;;;;;16.80;100804.00;;;;5010362;28;20220;-76
2022/11/24 11:54:18;;;;;;;6.95;1.70;;;;;16.80;100804.00;;;;5011107;28;20203;-76
2022/11/24 11:56:47;;;;;;;7.35;1.98;;;;;16.90;100797.00;;;;5011537;28;20204;-76
2022/11/24 11:59:37;;;;;;;10.57;2.15;;;;;16.90;100797.00;;;;5010838;28;20201;-76
2022/11/24 12:02:47;;;;;;;7.90;2.03;;;;;16.80;100802.00;;;;5010978;28;20209;-76
2022/11/24 12:05:25;;;;;;;7.35;1.50;;;;;16.90;100806.00;;;;5000794;28;20204;-76
2022/11/24 12:08:07;;;;;;;9.10;2.08;;;;;16.90;100795.00;;;;5010450;28;20567;-76
2022/11/24 12:10:41;;;;;;;5.00;1.35;;;;;17.00;100801.00;;;;5027625;28;20205;-76
2022/11/24 12:13:38;;;;;;;9.70;1.70;;;;;16.90;100803.00;;;;5030808;28;20706;-76
2022/11/24 12:16:13;;;;;;;6.35;1.30;;;;;17.00;100801.00;;;;5017160;28;20203;-76
2022/11/24 12:18:49;;;;;;;8.02;1.55;;;;;17.10;100805.00;;;;5011246;28;20201;-76
2022/11/24 12:21:18;;;;;;;9.27;1.63;;;;;17.10;100807.00;;;;5012262;28;20215;-76
2022/11/24 12:23:56;;;;;;;6.63;1.95;;;;;17.10;100803.00;;;;5011374;28;20197;-76